Terminal Aerodrome Forecast
Issued by NWS

Home | Current Version | Previous Version | Text Only | Print | Product List | Glossary On
Versions: 1 2 3 4 5 6 7 8 9 10 11 12 13 14 15 16 17 18 19 20 21 22 23 24
000
FTUS43 KILX 260540
TAFCMI
TAF
KCMI 260540Z 2606/2706 31014KT P6SM SCT030 OVC060
     FM260800 30010G15KT P6SM -SHRA SCT030 OVC060
     FM261200 29008KT P6SM BKN150
     FM261600 28014G22KT P6SM FEW250
     FM270100 26008KT P6SM SKC=

USA.gov is the U.S. government's official web portal to all federal, state and local government web resources and services.